sensor_id;sensor_type;location;lat;lon;timestamp;pressure;altitude;pressure_sealevel;temperature;humidity
48204;BME280;33994;50.998;5.864;2023-05-09T00:02:03;101293.88;;;15.59;89.25
48204;BME280;33994;50.998;5.864;2023-05-09T00:05:06;101285.19;;;15.55;89.10
48204;BME280;33994;50.998;5.864;2023-05-09T00:08:10;101287.03;;;15.52;89.30
48204;BME280;33994;50.998;5.864;2023-05-09T00:11:14;101279.19;;;15.50;89.73
48204;BME280;33994;50.998;5.864;2023-05-09T00:14:17;101285.38;;;15.49;89.69
48204;BME280;33994;50.998;5.864;2023-05-09T00:17:20;101276.72;;;15.44;89.89
48204;BME280;33994;50.998;5.864;2023-05-09T00:20:23;101273.28;;;15.41;89.76
48204;BME280;33994;50.998;5.864;2023-05-09T00:23:27;101266.38;;;15.38;90.52
48204;BME280;33994;50.998;5.864;2023-05-09T00:26:30;101268.13;;;15.38;90.71
48204;BME280;33994;50.998;5.864;2023-05-09T00:29:33;101261.22;;;15.33;90.49
48204;BME280;33994;50.998;5.864;2023-05-09T00:32:36;101262.22;;;15.29;90.68
48204;BME280;33994;50.998;5.864;2023-05-09T00:35:39;101258.81;;;15.24;90.70
48204;BME280;33994;50.998;5.864;2023-05-09T00:38:43;101252.84;;;15.19;90.76
48204;BME280;33994;50.998;5.864;2023-05-09T00:41:46;101248.47;;;15.18;90.83
48204;BME280;33994;50.998;5.864;2023-05-09T00:44:49;101250.19;;;15.19;91.35
48204;BME280;33994;50.998;5.864;2023-05-09T00:47:52;101239.72;;;15.16;91.77
48204;BME280;33994;50.998;5.864;2023-05-09T00:50:55;101236.19;;;15.17;91.68
48204;BME280;33994;50.998;5.864;2023-05-09T00:54:00;101229.28;;;15.13;92.00
48204;BME280;33994;50.998;5.864;2023-05-09T00:57:03;101223.22;;;15.09;91.53
48204;BME280;33994;50.998;5.864;2023-05-09T01:00:07;101218.94;;;15.07;91.66
48204;BME280;33994;50.998;5.864;2023-05-09T01:03:10;101218.94;;;15.07;91.17
48204;BME280;33994;50.998;5.864;2023-05-09T01:09:44;101210.25;;;15.02;90.23
48204;BME280;33994;50.998;5.864;2023-05-09T01:12:53;101213.81;;;15.01;90.08
48204;BME280;33994;50.998;5.864;2023-05-09T01:16:00;101214.81;;;14.97;90.26
48204;BME280;33994;50.998;5.864;2023-05-09T01:19:34;101210.56;;;14.91;90.72
48204;BME280;33994;50.998;5.864;2023-05-09T01:22:44;101198.28;;;14.90;91.11
48204;BME280;33994;50.998;5.864;2023-05-09T01:25:54;101195.66;;;14.90;91.21
48204;BME280;33994;50.998;5.864;2023-05-09T01:29:36;101189.53;;;14.90;91.59
48204;BME280;33994;50.998;5.864;2023-05-09T01:32:45;101185.19;;;14.87;91.41
48204;BME280;33994;50.998;5.864;2023-05-09T01:35:54;101191.38;;;14.88;91.38
48204;BME280;33994;50.998;5.864;2023-05-09T01:39:01;101181.75;;;14.85;91.54
48204;BME280;33994;50.998;5.864;2023-05-09T01:42:07;101181.81;;;14.83;91.49
48204;BME280;33994;50.998;5.864;2023-05-09T01:45:13;101183.63;;;14.81;91.68
48204;BME280;33994;50.998;5.864;2023-05-09T01:48:17;101176.63;;;14.80;91.77
48204;BME280;33994;50.998;5.864;2023-05-09T01:51:21;101174.00;;;14.80;91.91
48204;BME280;33994;50.998;5.864;2023-05-09T01:54:26;101171.38;;;14.80;92.07
48204;BME280;33994;50.998;5.864;2023-05-09T01:57:30;101164.44;;;14.76;92.23
48204;BME280;33994;50.998;5.864;2023-05-09T02:00:36;101158.34;;;14.74;92.50
48204;BME280;33994;50.998;5.864;2023-05-09T02:03:40;101158.34;;;14.74;92.76
48204;BME280;33994;50.998;5.864;2023-05-09T02:06:45;101166.22;;;14.76;92.87
48204;BME280;33994;50.998;5.864;2023-05-09T02:09:50;101160.06;;;14.75;92.69
48204;BME280;33994;50.998;5.864;2023-05-09T02:12:55;101164.47;;;14.75;92.81
48204;BME280;33994;50.998;5.864;2023-05-09T02:16:00;101160.06;;;14.75;92.80
48204;BME280;33994;50.998;5.864;2023-05-09T02:19:03;101164.44;;;14.76;92.81
48204;BME280;33994;50.998;5.864;2023-05-09T02:22:06;101157.41;;;14.77;92.91
48204;BME280;33994;50.998;5.864;2023-05-09T02:25:11;101165.25;;;14.78;92.88
48204;BME280;33994;50.998;5.864;2023-05-09T02:28:15;101162.63;;;14.78;92.75
48204;BME280;33994;50.998;5.864;2023-05-09T02:31:23;101157.41;;;14.77;92.75
48204;BME280;33994;50.998;5.864;2023-05-09T02:34:27;101157.44;;;14.75;92.92
48204;BME280;33994;50.998;5.864;2023-05-09T02:37:30;101147.81;;;14.74;93.02
48204;BME280;33994;50.998;5.864;2023-05-09T02:40:33;101146.03;;;14.76;93.13
48204;BME280;33994;50.998;5.864;2023-05-09T02:43:37;101149.53;;;14.75;92.88
48204;BME280;33994;50.998;5.864;2023-05-09T02:46:41;101153.16;;;14.71;93.14
48204;BME280;33994;50.998;5.864;2023-05-09T02:49:44;101152.34;;;14.69;93.24
48204;BME280;33994;50.998;5.864;2023-05-09T02:52:47;101143.66;;;14.66;93.48
48204;BME280;33994;50.998;5.864;2023-05-09T02:55:50;101142.75;;;14.67;93.91
48204;BME280;33994;50.998;5.864;2023-05-09T02:58:53;101145.31;;;14.70;93.78
48204;BME280;33994;50.998;5.864;2023-05-09T03:01:58;101125.13;;;14.70;93.77
48204;BME280;33994;50.998;5.864;2023-05-09T03:05:01;101132.97;;;14.72;93.69
48204;BME280;33994;50.998;5.864;2023-05-09T03:08:04;101125.97;;;14.71;93.60
48204;BME280;33994;50.998;5.864;2023-05-09T03:11:07;101128.59;;;14.71;93.63
48204;BME280;33994;50.998;5.864;2023-05-09T03:14:10;101125.97;;;14.71;93.50
48204;BME280;33994;50.998;5.864;2023-05-09T03:17:14;101116.34;;;14.70;93.60
48204;BME280;33994;50.998;5.864;2023-05-09T03:20:17;101118.13;;;14.69;93.69
48204;BME280;33994;50.998;5.864;2023-05-09T03:23:20;101119.94;;;14.67;93.70
48204;BME280;33994;50.998;5.864;2023-05-09T03:26:23;101115.59;;;14.65;94.12
48204;BME280;33994;50.998;5.864;2023-05-09T03:29:26;101108.53;;;14.67;94.41
48204;BME280;33994;50.998;5.864;2023-05-09T03:32:30;101114.59;;;14.70;94.48
48204;BME280;33994;50.998;5.864;2023-05-09T03:35:33;101109.31;;;14.70;94.42
48204;BME280;33994;50.998;5.864;2023-05-09T03:38:36;101104.06;;;14.70;94.82
48204;BME280;33994;50.998;5.864;2023-05-09T03:41:39;101102.25;;;14.72;94.90
48204;BME280;33994;50.998;5.864;2023-05-09T03:44:42;101095.25;;;14.71;94.91
48204;BME280;33994;50.998;5.864;2023-05-09T03:47:46;101093.47;;;14.72;95.15
48204;BME280;33994;50.998;5.864;2023-05-09T03:50:50;101095.25;;;14.71;95.23
48204;BME280;33994;50.998;5.864;2023-05-09T03:53:53;101086.53;;;14.69;95.49
48204;BME280;33994;50.998;5.864;2023-05-09T03:56:56;101090.94;;;14.69;95.83
48204;BME280;33994;50.998;5.864;2023-05-09T03:59:59;101078.72;;;14.66;96.26
48204;BME280;33994;50.998;5.864;2023-05-09T04:03:04;101089.25;;;14.66;96.65
48204;BME280;33994;50.998;5.864;2023-05-09T04:06:07;101085.75;;;14.66;96.94
48204;BME280;33994;50.998;5.864;2023-05-09T04:09:10;101082.22;;;14.67;97.09
48204;BME280;33994;50.998;5.864;2023-05-09T04:12:13;101085.75;;;14.64;97.25
48204;BME280;33994;50.998;5.864;2023-05-09T04:15:17;101075.28;;;14.63;97.64
48204;BME280;33994;50.998;5.864;2023-05-09T04:18:21;101083.22;;;14.61;97.77
48204;BME280;33994;50.998;5.864;2023-05-09T04:21:25;101077.06;;;14.60;98.02
48204;BME280;33994;50.998;5.864;2023-05-09T04:24:28;101073.69;;;14.57;98.20
48204;BME280;33994;50.998;5.864;2023-05-09T04:27:31;101072.78;;;14.58;98.51
48204;BME280;33994;50.998;5.864;2023-05-09T04:30:34;101071.88;;;14.59;98.73
48204;BME280;33994;50.998;5.864;2023-05-09T04:33:38;101071.81;;;14.60;98.87
48204;BME280;33994;50.998;5.864;2023-05-09T04:36:41;101076.13;;;14.63;98.89
48204;BME280;33994;50.998;5.864;2023-05-09T04:39:44;101070.81;;;14.66;98.99
48204;BME280;33994;50.998;5.864;2023-05-09T04:42:47;101069.84;;;14.70;98.94
48204;BME280;33994;50.998;5.864;2023-05-09T04:45:50;101061.84;;;14.73;98.97
48204;BME280;33994;50.998;5.864;2023-05-09T04:48:54;101064.34;;;14.78;98.88
48204;BME280;33994;50.998;5.864;2023-05-09T04:51:57;101061.50;;;14.86;98.61
48204;BME280;33994;50.998;5.864;2023-05-09T04:55:00;101050.78;;;14.92;98.13
48204;BME280;33994;50.998;5.864;2023-05-09T04:58:04;101053.22;;;14.98;97.55
48204;BME280;33994;50.998;5.864;2023-05-09T05:01:07;101052.97;;;15.07;96.54
48204;BME280;33994;50.998;5.864;2023-05-09T05:04:11;101050.88;;;15.18;95.97
48204;BME280;33994;50.998;5.864;2023-05-09T05:07:14;101048.97;;;15.23;95.11
48204;BME280;33994;50.998;5.864;2023-05-09T05:10:17;101041.91;;;15.24;94.32
48204;BME280;33994;50.998;5.864;2023-05-09T05:13:20;101027.81;;;15.25;93.84
48204;BME280;33994;50.998;5.864;2023-05-09T05:16:22;101026.78;;;15.30;93.35
48204;BME280;33994;50.998;5.864;2023-05-09T05:19:27;101019.56;;;15.37;92.47
48204;BME280;33994;50.998;5.864;2023-05-09T05:22:30;101011.34;;;15.46;91.71
48204;BME280;33994;50.998;5.864;2023-05-09T05:25:32;101003.28;;;15.51;90.96
48204;BME280;33994;50.998;5.864;2023-05-09T05:28:35;101003.19;;;15.54;90.02
48204;BME280;33994;50.998;5.864;2023-05-09T05:31:38;101006.53;;;15.59;89.62
48204;BME280;33994;50.998;5.864;2023-05-09T05:34:42;101007.13;;;15.67;88.59
48204;BME280;33994;50.998;5.864;2023-05-09T05:37:45;101002.88;;;15.63;88.49
48204;BME280;33994;50.998;5.864;2023-05-09T05:40:48;101009.13;;;15.61;88.63
48204;BME280;33994;50.998;5.864;2023-05-09T05:43:51;101000.22;;;15.63;88.38
48204;BME280;33994;50.998;5.864;2023-05-09T05:46:54;100995.78;;;15.65;87.93
48204;BME280;33994;50.998;5.864;2023-05-09T05:49:59;100991.38;;;15.66;87.27
48204;BME280;33994;50.998;5.864;2023-05-09T05:53:02;100990.41;;;15.68;87.07
48204;BME280;33994;50.998;5.864;2023-05-09T05:56:06;100981.50;;;15.72;87.17
48204;BME280;33994;50.998;5.864;2023-05-09T05:59:09;100984.81;;;15.79;86.99
48204;BME280;33994;50.998;5.864;2023-05-09T06:02:11;100980.16;;;15.87;86.63
48204;BME280;33994;50.998;5.864;2023-05-09T06:05:16;100977.94;;;16.00;86.11
48204;BME280;33994;50.998;5.864;2023-05-09T06:08:19;100967.88;;;16.11;85.61
48204;BME280;33994;50.998;5.864;2023-05-09T06:11:22;100952.06;;;16.35;85.29
48204;BME280;33994;50.998;5.864;2023-05-09T06:14:26;100956.53;;;16.56;83.99
48204;BME280;33994;50.998;5.864;2023-05-09T06:17:29;100948.03;;;16.71;82.77
48204;BME280;33994;50.998;5.864;2023-05-09T06:20:34;100949.41;;;16.82;81.96
48204;BME280;33994;50.998;5.864;2023-05-09T06:23:37;100949.69;;;16.97;81.50
48204;BME280;33994;50.998;5.864;2023-05-09T06:26:40;100949.81;;;17.16;80.63
48204;BME280;33994;50.998;5.864;2023-05-09T06:29:43;100940.59;;;17.26;80.18
48204;BME280;33994;50.998;5.864;2023-05-09T06:32:46;100926.81;;;17.40;79.30
48204;BME280;33994;50.998;5.864;2023-05-09T06:35:50;100924.69;;;17.48;78.91
48204;BME280;33994;50.998;5.864;2023-05-09T06:38:54;100925.16;;;17.58;78.43
48204;BME280;33994;50.998;5.864;2023-05-09T06:41:57;100915.06;;;17.68;77.84
48204;BME280;33994;50.998;5.864;2023-05-09T06:45:00;100932.59;;;17.91;76.91
48204;BME280;33994;50.998;5.864;2023-05-09T06:48:04;100920.84;;;17.98;76.35
48204;BME280;33994;50.998;5.864;2023-05-09T06:51:08;100922.78;;;18.13;76.30
48204;BME280;33994;50.998;5.864;2023-05-09T06:54:11;100920.31;;;18.29;75.77
48204;BME280;33994;50.998;5.864;2023-05-09T06:57:14;100912.66;;;18.42;75.22
48204;BME280;33994;50.998;5.864;2023-05-09T07:00:18;100912.47;;;18.46;74.93
48204;BME280;33994;50.998;5.864;2023-05-09T07:03:21;100907.72;;;18.53;74.32
48204;BME280;33994;50.998;5.864;2023-05-09T07:06:26;100902.22;;;18.58;73.79
48204;BME280;33994;50.998;5.864;2023-05-09T07:09:28;100902.16;;;18.40;73.98
48204;BME280;33994;50.998;5.864;2023-05-09T07:12:31;100896.94;;;18.39;74.46
48204;BME280;33994;50.998;5.864;2023-05-09T07:15:35;100891.81;;;18.34;74.19
48204;BME280;33994;50.998;5.864;2023-05-09T07:18:38;100888.53;;;18.29;74.52
48204;BME280;33994;50.998;5.864;2023-05-09T07:21:42;100878.09;;;18.26;73.85
48204;BME280;33994;50.998;5.864;2023-05-09T07:24:45;100879.25;;;18.20;74.04
48204;BME280;33994;50.998;5.864;2023-05-09T07:27:48;100880.19;;;18.19;74.38
48204;BME280;33994;50.998;5.864;2023-05-09T07:30:51;100873.88;;;18.22;74.55
48204;BME280;33994;50.998;5.864;2023-05-09T07:33:56;100878.44;;;18.18;74.65
48204;BME280;33994;50.998;5.864;2023-05-09T07:37:00;100881.09;;;18.18;74.50
48204;BME280;33994;50.998;5.864;2023-05-09T07:40:05;100867.97;;;18.15;74.40
48204;BME280;33994;50.998;5.864;2023-05-09T07:43:08;100874.16;;;18.16;74.50
48204;BME280;33994;50.998;5.864;2023-05-09T07:46:11;100876.09;;;18.12;74.52
48204;BME280;33994;50.998;5.864;2023-05-09T07:49:14;100867.66;;;18.04;74.31
48204;BME280;33994;50.998;5.864;2023-05-09T07:52:19;100871.41;;;17.98;74.74
48204;BME280;33994;50.998;5.864;2023-05-09T07:55:22;100865.69;;;17.89;74.79
48204;BME280;33994;50.998;5.864;2023-05-09T07:58:25;100857.03;;;17.85;75.00
48204;BME280;33994;50.998;5.864;2023-05-09T08:01:28;100856.94;;;17.87;74.82
48204;BME280;33994;50.998;5.864;2023-05-09T08:04:31;100852.31;;;17.92;74.83
48204;BME280;33994;50.998;5.864;2023-05-09T08:07:35;100841.78;;;17.90;74.39
48204;BME280;33994;50.998;5.864;2023-05-09T08:10:38;100841.72;;;17.92;74.22
48204;BME280;33994;50.998;5.864;2023-05-09T08:13:42;100838.16;;;17.93;74.07
48204;BME280;33994;50.998;5.864;2023-05-09T08:16:45;100826.50;;;17.97;74.00
48204;BME280;33994;50.998;5.864;2023-05-09T08:19:48;100823.44;;;18.06;74.01
48204;BME280;33994;50.998;5.864;2023-05-09T08:22:52;100818.22;;;18.05;73.25
48204;BME280;33994;50.998;5.864;2023-05-09T08:25:55;100816.34;;;18.07;73.03
48204;BME280;33994;50.998;5.864;2023-05-09T08:28:59;100802.75;;;18.14;73.21
48204;BME280;33994;50.998;5.864;2023-05-09T08:32:02;100803.47;;;18.18;72.73
48204;BME280;33994;50.998;5.864;2023-05-09T08:35:06;100807.78;;;18.20;72.60
48204;BME280;33994;50.998;5.864;2023-05-09T08:38:11;100806.63;;;18.26;72.53
48204;BME280;33994;50.998;5.864;2023-05-09T08:41:14;100802.41;;;18.22;72.36
48204;BME280;33994;50.998;5.864;2023-05-09T08:44:18;100809.34;;;18.24;72.30
48204;BME280;33994;50.998;5.864;2023-05-09T08:47:21;100801.31;;;18.26;72.19
48204;BME280;33994;50.998;5.864;2023-05-09T08:50:26;100799.34;;;18.31;71.71
48204;BME280;33994;50.998;5.864;2023-05-09T08:53:31;100801.25;;;18.28;71.71
48204;BME280;33994;50.998;5.864;2023-05-09T08:56:34;100797.59;;;18.11;71.77
48204;BME280;33994;50.998;5.864;2023-05-09T08:59:39;100791.19;;;17.98;72.28
48204;BME280;33994;50.998;5.864;2023-05-09T09:02:43;100789.47;;;17.97;72.51
48204;BME280;33994;50.998;5.864;2023-05-09T09:05:47;100792.25;;;17.94;72.89
48204;BME280;33994;50.998;5.864;2023-05-09T09:08:53;100783.72;;;17.87;72.79
48204;BME280;33994;50.998;5.864;2023-05-09T09:11:57;100787.66;;;17.79;72.84
48204;BME280;33994;50.998;5.864;2023-05-09T09:15:03;100783.56;;;17.71;73.60
48204;BME280;33994;50.998;5.864;2023-05-09T09:18:07;100782.91;;;17.66;73.90
48204;BME280;33994;50.998;5.864;2023-05-09T09:21:11;100783.97;;;17.62;73.69
48204;BME280;33994;50.998;5.864;2023-05-09T09:24:20;100775.16;;;17.62;73.61
48204;BME280;33994;50.998;5.864;2023-05-09T09:27:24;100775.22;;;17.60;73.65
48204;BME280;33994;50.998;5.864;2023-05-09T09:30:27;100768.38;;;17.56;73.89
48204;BME280;33994;50.998;5.864;2023-05-09T09:33:30;100766.78;;;17.52;73.87
48204;BME280;33994;50.998;5.864;2023-05-09T09:36:33;100765.22;;;17.48;73.62
48204;BME280;33994;50.998;5.864;2023-05-09T09:39:38;100770.75;;;17.42;73.64
48204;BME280;33994;50.998;5.864;2023-05-09T09:42:55;100762.94;;;17.39;74.09
48204;BME280;33994;50.998;5.864;2023-05-09T09:46:00;100763.13;;;17.36;74.47
48204;BME280;33994;50.998;5.864;2023-05-09T09:49:03;100760.59;;;17.33;74.69
48204;BME280;33994;50.998;5.864;2023-05-09T09:52:06;100757.94;;;17.33;74.96
48204;BME280;33994;50.998;5.864;2023-05-09T09:55:11;100749.34;;;17.27;74.90
48204;BME280;33994;50.998;5.864;2023-05-09T09:58:18;100753.13;;;17.22;75.37
48204;BME280;33994;50.998;5.864;2023-05-09T10:01:21;100740.97;;;17.18;75.82
48204;BME280;33994;50.998;5.864;2023-05-09T10:04:26;100742.16;;;17.11;75.88
48204;BME280;33994;50.998;5.864;2023-05-09T10:07:32;100731.47;;;17.14;75.98
48204;BME280;33994;50.998;5.864;2023-05-09T10:10:37;100733.19;;;17.15;76.14
48204;BME280;33994;50.998;5.864;2023-05-09T10:13:40;100735.69;;;17.18;76.31
48204;BME280;33994;50.998;5.864;2023-05-09T10:16:46;100734.63;;;17.22;76.19
48204;BME280;33994;50.998;5.864;2023-05-09T10:19:50;100730.84;;;17.27;75.87
48204;BME280;33994;50.998;5.864;2023-05-09T10:22:55;100721.72;;;17.35;75.91
48204;BME280;33994;50.998;5.864;2023-05-09T10:26:05;100715.09;;;17.45;76.20
48204;BME280;33994;50.998;5.864;2023-05-09T10:29:15;100705.03;;;17.53;75.40
48204;BME280;33994;50.998;5.864;2023-05-09T10:32:23;100703.75;;;17.62;75.01
48204;BME280;33994;50.998;5.864;2023-05-09T10:35:32;100698.94;;;17.71;74.74
48204;BME280;33994;50.998;5.864;2023-05-09T10:38:36;100689.00;;;17.77;74.51
48204;BME280;33994;50.998;5.864;2023-05-09T10:41:41;100690.91;;;17.73;74.28
48204;BME280;33994;50.998;5.864;2023-05-09T10:44:45;100682.13;;;17.72;74.40
48204;BME280;33994;50.998;5.864;2023-05-09T10:47:51;100678.56;;;17.73;75.35
48204;BME280;33994;50.998;5.864;2023-05-09T10:50:55;100681.59;;;17.64;75.83
48204;BME280;33994;50.998;5.864;2023-05-09T10:53:59;100683.75;;;17.56;76.66
48204;BME280;33994;50.998;5.864;2023-05-09T10:57:05;100680.38;;;17.52;77.84
48204;BME280;33994;50.998;5.864;2023-05-09T11:00:12;100680.31;;;17.54;78.70
48204;BME280;33994;50.998;5.864;2023-05-09T11:03:15;100664.53;;;17.52;80.00
48204;BME280;33994;50.998;5.864;2023-05-09T11:06:44;100672.44;;;17.52;82.82
48204;BME280;33994;50.998;5.864;2023-05-09T11:09:50;100673.59;;;17.47;83.54
48204;BME280;33994;50.998;5.864;2023-05-09T11:12:56;100668.59;;;17.41;85.12
48204;BME280;33994;50.998;5.864;2023-05-09T11:16:07;100660.94;;;17.35;86.29
48204;BME280;33994;50.998;5.864;2023-05-09T11:19:11;100664.59;;;17.32;86.69
48204;BME280;33994;50.998;5.864;2023-05-09T11:22:16;100661.22;;;17.29;87.07
48204;BME280;33994;50.998;5.864;2023-05-09T11:25:24;100665.13;;;17.20;88.72
48204;BME280;33994;50.998;5.864;2023-05-09T11:28:30;100650.66;;;17.08;88.84
48204;BME280;33994;50.998;5.864;2023-05-09T11:31:35;100651.91;;;17.01;89.55
48204;BME280;33994;50.998;5.864;2023-05-09T11:35:09;100655.41;;;17.01;91.37
48204;BME280;33994;50.998;5.864;2023-05-09T11:38:20;100649.44;;;16.96;92.52
48204;BME280;33994;50.998;5.864;2023-05-09T11:41:23;100648.78;;;16.91;92.63
48204;BME280;33994;50.998;5.864;2023-05-09T11:44:28;100648.28;;;16.83;93.21
48204;BME280;33994;50.998;5.864;2023-05-09T11:47:34;100642.47;;;16.73;93.32
48204;BME280;33994;50.998;5.864;2023-05-09T11:50:39;100643.94;;;16.60;93.51
48204;BME280;33994;50.998;5.864;2023-05-09T11:53:42;100638.69;;;16.60;94.22
48204;BME280;33994;50.998;5.864;2023-05-09T11:56:46;100628.50;;;16.51;94.98
48204;BME280;33994;50.998;5.864;2023-05-09T11:59:50;100637.63;;;16.44;95.29
48204;BME280;33994;50.998;5.864;2023-05-09T12:02:54;100629.22;;;16.34;95.80
48204;BME280;33994;50.998;5.864;2023-05-09T12:05:58;100626.03;;;16.26;96.49
48204;BME280;33994;50.998;5.864;2023-05-09T12:09:01;100625.44;;;16.19;97.13
48204;BME280;33994;50.998;5.864;2023-05-09T12:12:08;100617.63;;;16.16;97.96
48204;BME280;33994;50.998;5.864;2023-05-09T12:15:13;100617.75;;;16.13;98.30
48204;BME280;33994;50.998;5.864;2023-05-09T12:18:17;100622.25;;;16.11;99.01
48204;BME280;33994;50.998;5.864;2023-05-09T12:21:20;100614.53;;;16.07;98.38
48204;BME280;33994;50.998;5.864;2023-05-09T12:24:24;100616.66;;;15.97;97.29
48204;BME280;33994;50.998;5.864;2023-05-09T12:27:27;100619.56;;;15.91;96.80
48204;BME280;33994;50.998;5.864;2023-05-09T12:30:32;100617.91;;;15.88;97.98
48204;BME280;33994;50.998;5.864;2023-05-09T12:33:36;100613.38;;;15.92;98.72
48204;BME280;33994;50.998;5.864;2023-05-09T12:36:42;100609.75;;;15.94;98.68
48204;BME280;33994;50.998;5.864;2023-05-09T12:39:59;100604.66;;;15.90;97.95
48204;BME280;33994;50.998;5.864;2023-05-09T12:43:02;100603.75;;;15.91;97.46
48204;BME280;33994;50.998;5.864;2023-05-09T12:46:06;100606.56;;;15.86;96.31
48204;BME280;33994;50.998;5.864;2023-05-09T12:49:18;100603.31;;;15.79;95.65
48204;BME280;33994;50.998;5.864;2023-05-09T12:52:21;100595.66;;;15.73;94.85
48204;BME280;33994;50.998;5.864;2023-05-09T12:55:25;100596.53;;;15.72;94.96
48204;BME280;33994;50.998;5.864;2023-05-09T12:58:29;100591.63;;;15.63;94.56
48204;BME280;33994;50.998;5.864;2023-05-09T13:01:34;100596.09;;;15.61;94.40
48204;BME280;33994;50.998;5.864;2023-05-09T13:04:37;100589.25;;;15.57;94.66
48204;BME280;33994;50.998;5.864;2023-05-09T13:07:40;100594.63;;;15.54;95.03
48204;BME280;33994;50.998;5.864;2023-05-09T13:10:44;100585.97;;;15.50;95.51
48204;BME280;33994;50.998;5.864;2023-05-09T13:13:47;100578.00;;;15.52;96.02
48204;BME280;33994;50.998;5.864;2023-05-09T13:16:51;100586.72;;;15.54;95.92
48204;BME280;33994;50.998;5.864;2023-05-09T13:19:55;100573.31;;;15.60;96.47
48204;BME280;33994;50.998;5.864;2023-05-09T13:22:59;100575.56;;;15.69;97.16
48204;BME280;33994;50.998;5.864;2023-05-09T13:26:03;100566.72;;;15.70;96.79
48204;BME280;33994;50.998;5.864;2023-05-09T13:29:07;100559.63;;;15.72;97.27
48204;BME280;33994;50.998;5.864;2023-05-09T13:32:11;100565.03;;;15.69;97.22
48204;BME280;33994;50.998;5.864;2023-05-09T13:35:15;100557.94;;;15.71;97.55
48204;BME280;33994;50.998;5.864;2023-05-09T13:38:18;100559.94;;;15.65;97.46
48204;BME280;33994;50.998;5.864;2023-05-09T13:41:22;100548.91;;;15.55;97.51
48204;BME280;33994;50.998;5.864;2023-05-09T13:44:25;100552.56;;;15.51;97.83
48204;BME280;33994;50.998;5.864;2023-05-09T13:47:29;100546.75;;;15.43;97.77
48204;BME280;33994;50.998;5.864;2023-05-09T13:50:32;100556.63;;;15.38;98.46
48204;BME280;33994;50.998;5.864;2023-05-09T13:53:35;100551.50;;;15.33;99.07
48204;BME280;33994;50.998;5.864;2023-05-09T13:56:39;100549.31;;;15.22;99.38
48204;BME280;33994;50.998;5.864;2023-05-09T13:59:42;100536.59;;;15.10;100.00
48204;BME280;33994;50.998;5.864;2023-05-09T14:02:47;100538.34;;;15.11;100.00
48204;BME280;33994;50.998;5.864;2023-05-09T14:05:50;100525.03;;;15.14;100.00
48204;BME280;33994;50.998;5.864;2023-05-09T14:08:53;100531.41;;;15.08;100.00
48204;BME280;33994;50.998;5.864;2023-05-09T14:11:56;100526.25;;;15.05;100.00
48204;BME280;33994;50.998;5.864;2023-05-09T14:14:59;100529.56;;;15.11;100.00
48204;BME280;33994;50.998;5.864;2023-05-09T14:18:04;100509.47;;;15.08;100.00
48204;BME280;33994;50.998;5.864;2023-05-09T14:21:07;100508.63;;;15.07;100.00
48204;BME280;33994;50.998;5.864;2023-05-09T14:24:11;100502.50;;;15.07;100.00
48204;BME280;33994;50.998;5.864;2023-05-09T14:27:14;100496.47;;;15.03;100.00
48204;BME280;33994;50.998;5.864;2023-05-09T14:30:17;100491.09;;;15.06;100.00
48204;BME280;33994;50.998;5.864;2023-05-09T14:33:22;100498.88;;;15.09;100.00
48204;BME280;33994;50.998;5.864;2023-05-09T14:36:25;100494.34;;;15.13;100.00
48204;BME280;33994;50.998;5.864;2023-05-09T14:39:28;100491.59;;;15.16;100.00
48204;BME280;33994;50.998;5.864;2023-05-09T14:42:31;100492.63;;;15.12;100.00
48204;BME280;33994;50.998;5.864;2023-05-09T14:45:34;100484.00;;;15.08;100.00
48204;BME280;33994;50.998;5.864;2023-05-09T14:48:39;100477.88;;;15.08;100.00
48204;BME280;33994;50.998;5.864;2023-05-09T14:51:42;100476.94;;;15.09;100.00
48204;BME280;33994;50.998;5.864;2023-05-09T14:54:45;100473.38;;;15.10;100.00
48204;BME280;33994;50.998;5.864;2023-05-09T14:57:48;100469.78;;;15.13;100.00
48204;BME280;33994;50.998;5.864;2023-05-09T15:00:52;100464.63;;;15.09;100.00
48204;BME280;33994;50.998;5.864;2023-05-09T15:03:56;100463.78;;;15.09;100.00
48204;BME280;33994;50.998;5.864;2023-05-09T15:06:59;100456.56;;;15.14;100.00
48204;BME280;33994;50.998;5.864;2023-05-09T15:10:04;100452.81;;;15.20;100.00
48204;BME280;33994;50.998;5.864;2023-05-09T15:13:07;100449.25;;;15.21;100.00
48204;BME280;33994;50.998;5.864;2023-05-09T15:16:10;100455.53;;;15.18;100.00
48204;BME280;33994;50.998;5.864;2023-05-09T15:19:15;100450.28;;;15.17;100.00
48204;BME280;33994;50.998;5.864;2023-05-09T15:22:18;100448.66;;;15.14;100.00
48204;BME280;33994;50.998;5.864;2023-05-09T15:25:21;100444.41;;;15.10;100.00
48204;BME280;33994;50.998;5.864;2023-05-09T15:28:24;100439.28;;;15.07;100.00
48204;BME280;33994;50.998;5.864;2023-05-09T15:31:30;100440.25;;;15.04;100.00
48204;BME280;33994;50.998;5.864;2023-05-09T15:34:34;100443.63;;;15.08;100.00
48204;BME280;33994;50.998;5.864;2023-05-09T15:37:37;100433.84;;;15.12;100.00
48204;BME280;33994;50.998;5.864;2023-05-09T15:40:40;100436.50;;;15.10;100.00
48204;BME280;33994;50.998;5.864;2023-05-09T15:43:44;100432.16;;;15.09;100.00
48204;BME280;33994;50.998;5.864;2023-05-09T15:46:47;100428.78;;;15.05;100.00
48204;BME280;33994;50.998;5.864;2023-05-09T15:49:52;100432.44;;;15.03;100.00
48204;BME280;33994;50.998;5.864;2023-05-09T15:52:55;100428.00;;;15.03;100.00
48204;BME280;33994;50.998;5.864;2023-05-09T15:55:59;100420.97;;;15.04;100.00
48204;BME280;33994;50.998;5.864;2023-05-09T15:59:02;100422.78;;;15.02;100.00
48204;BME280;33994;50.998;5.864;2023-05-09T16:02:05;100417.53;;;15.02;100.00
48204;BME280;33994;50.998;5.864;2023-05-09T16:05:10;100411.34;;;15.03;100.00